sensor_id;sensor_type;location;lat;lon;timestamp;P1;durP1;ratioP1;P2;durP2;ratioP2
16824;SDS011;8529;48.108;-1.706;2023-05-02T00:01:14;4.00;;;2.20;;
16824;SDS011;8529;48.108;-1.706;2023-05-02T00:03:43;4.15;;;2.22;;
16824;SDS011;8529;48.108;-1.706;2023-05-02T00:06:10;5.07;;;2.30;;
16824;SDS011;8529;48.108;-1.706;2023-05-02T00:08:37;5.88;;;2.90;;
16824;SDS011;8529;48.108;-1.706;2023-05-02T00:11:04;5.55;;;2.92;;
16824;SDS011;8529;48.108;-1.706;2023-05-02T00:13:31;6.72;;;2.85;;
16824;SDS011;8529;48.108;-1.706;2023-05-02T00:15:58;5.63;;;2.55;;
16824;SDS011;8529;48.108;-1.706;2023-05-02T00:18:25;3.95;;;2.45;;
16824;SDS011;8529;48.108;-1.706;2023-05-02T00:20:54;5.05;;;2.75;;
16824;SDS011;8529;48.108;-1.706;2023-05-02T00:23:21;5.82;;;2.80;;
16824;SDS011;8529;48.108;-1.706;2023-05-02T00:25:48;7.97;;;2.80;;
16824;SDS011;8529;48.108;-1.706;2023-05-02T00:28:15;6.65;;;2.50;;
16824;SDS011;8529;48.108;-1.706;2023-05-02T00:30:42;5.18;;;2.45;;
16824;SDS011;8529;48.108;-1.706;2023-05-02T00:33:09;4.20;;;2.33;;
16824;SDS011;8529;48.108;-1.706;2023-05-02T00:35:37;5.05;;;2.25;;
16824;SDS011;8529;48.108;-1.706;2023-05-02T00:38:06;5.70;;;2.88;;
16824;SDS011;8529;48.108;-1.706;2023-05-02T00:40:41;3.72;;;2.60;;
16824;SDS011;8529;48.108;-1.706;2023-05-02T00:43:09;4.88;;;2.60;;
16824;SDS011;8529;48.108;-1.706;2023-05-02T00:45:36;5.80;;;3.05;;
16824;SDS011;8529;48.108;-1.706;2023-05-02T00:48:05;4.70;;;2.78;;
16824;SDS011;8529;48.108;-1.706;2023-05-02T00:50:32;7.13;;;2.60;;
16824;SDS011;8529;48.108;-1.706;2023-05-02T00:53:01;6.47;;;3.13;;
16824;SDS011;8529;48.108;-1.706;2023-05-02T00:55:31;8.45;;;3.15;;
16824;SDS011;8529;48.108;-1.706;2023-05-02T00:57:58;8.27;;;3.35;;
16824;SDS011;8529;48.108;-1.706;2023-05-02T01:00:28;8.60;;;3.83;;
16824;SDS011;8529;48.108;-1.706;2023-05-02T01:03:04;9.27;;;3.75;;
16824;SDS011;8529;48.108;-1.706;2023-05-02T01:05:39;6.75;;;2.80;;
16824;SDS011;8529;48.108;-1.706;2023-05-02T01:08:12;5.70;;;2.65;;
16824;SDS011;8529;48.108;-1.706;2023-05-02T01:10:51;4.32;;;2.80;;
16824;SDS011;8529;48.108;-1.706;2023-05-02T01:13:30;7.03;;;3.28;;
16824;SDS011;8529;48.108;-1.706;2023-05-02T01:15:59;3.95;;;2.40;;
16824;SDS011;8529;48.108;-1.706;2023-05-02T01:18:29;4.40;;;2.65;;
16824;SDS011;8529;48.108;-1.706;2023-05-02T01:20:59;4.57;;;2.85;;
16824;SDS011;8529;48.108;-1.706;2023-05-02T01:23:29;4.22;;;2.75;;
16824;SDS011;8529;48.108;-1.706;2023-05-02T01:26:08;7.25;;;3.45;;
16824;SDS011;8529;48.108;-1.706;2023-05-02T01:31:28;10.93;;;3.75;;
16824;SDS011;8529;48.108;-1.706;2023-05-02T01:33:57;9.60;;;3.58;;
16824;SDS011;8529;48.108;-1.706;2023-05-02T01:36:27;8.50;;;3.75;;
16824;SDS011;8529;48.108;-1.706;2023-05-02T01:38:56;6.07;;;3.78;;
16824;SDS011;8529;48.108;-1.706;2023-05-02T01:41:28;5.78;;;3.60;;
16824;SDS011;8529;48.108;-1.706;2023-05-02T01:43:57;6.25;;;3.22;;
16824;SDS011;8529;48.108;-1.706;2023-05-02T01:46:29;7.00;;;3.13;;
16824;SDS011;8529;48.108;-1.706;2023-05-02T01:48:58;8.77;;;3.65;;
16824;SDS011;8529;48.108;-1.706;2023-05-02T01:51:29;6.93;;;3.15;;
16824;SDS011;8529;48.108;-1.706;2023-05-02T01:53:59;8.75;;;3.75;;
16824;SDS011;8529;48.108;-1.706;2023-05-02T01:56:28;5.30;;;2.97;;
16824;SDS011;8529;48.108;-1.706;2023-05-02T01:58:57;11.32;;;4.65;;
16824;SDS011;8529;48.108;-1.706;2023-05-02T02:01:27;16.20;;;5.20;;
16824;SDS011;8529;48.108;-1.706;2023-05-02T02:03:55;13.93;;;5.10;;
16824;SDS011;8529;48.108;-1.706;2023-05-02T02:06:23;15.70;;;5.15;;
16824;SDS011;8529;48.108;-1.706;2023-05-02T02:08:51;12.55;;;4.63;;
16824;SDS011;8529;48.108;-1.706;2023-05-02T02:11:20;11.77;;;4.97;;
16824;SDS011;8529;48.108;-1.706;2023-05-02T02:13:54;10.77;;;4.90;;
16824;SDS011;8529;48.108;-1.706;2023-05-02T02:16:28;10.98;;;4.28;;
16824;SDS011;8529;48.108;-1.706;2023-05-02T02:18:58;11.25;;;4.47;;
16824;SDS011;8529;48.108;-1.706;2023-05-02T02:21:33;14.52;;;4.68;;
16824;SDS011;8529;48.108;-1.706;2023-05-02T02:24:03;13.88;;;5.97;;
16824;SDS011;8529;48.108;-1.706;2023-05-02T02:26:31;14.50;;;5.38;;
16824;SDS011;8529;48.108;-1.706;2023-05-02T02:28:59;15.25;;;5.85;;
16824;SDS011;8529;48.108;-1.706;2023-05-02T02:31:30;15.70;;;6.18;;
16824;SDS011;8529;48.108;-1.706;2023-05-02T02:33:58;12.93;;;5.72;;
16824;SDS011;8529;48.108;-1.706;2023-05-02T02:36:27;15.63;;;5.78;;
16824;SDS011;8529;48.108;-1.706;2023-05-02T02:39:01;14.32;;;5.18;;
16824;SDS011;8529;48.108;-1.706;2023-05-02T02:41:35;12.90;;;5.00;;
16824;SDS011;8529;48.108;-1.706;2023-05-02T02:44:12;13.90;;;6.10;;
16824;SDS011;8529;48.108;-1.706;2023-05-02T02:46:55;14.93;;;5.32;;
16824;SDS011;8529;48.108;-1.706;2023-05-02T02:49:31;12.23;;;4.93;;
16824;SDS011;8529;48.108;-1.706;2023-05-02T02:52:05;9.98;;;4.45;;
16824;SDS011;8529;48.108;-1.706;2023-05-02T02:54:38;11.52;;;5.47;;
16824;SDS011;8529;48.108;-1.706;2023-05-02T02:57:13;9.02;;;4.95;;
16824;SDS011;8529;48.108;-1.706;2023-05-02T02:59:45;10.38;;;4.82;;
16824;SDS011;8529;48.108;-1.706;2023-05-02T03:02:17;12.60;;;4.70;;
16824;SDS011;8529;48.108;-1.706;2023-05-02T03:04:47;14.30;;;5.15;;
16824;SDS011;8529;48.108;-1.706;2023-05-02T03:07:18;12.55;;;4.95;;
16824;SDS011;8529;48.108;-1.706;2023-05-02T03:09:46;12.40;;;4.90;;
16824;SDS011;8529;48.108;-1.706;2023-05-02T03:12:13;10.60;;;4.70;;
16824;SDS011;8529;48.108;-1.706;2023-05-02T03:14:40;14.48;;;5.13;;
16824;SDS011;8529;48.108;-1.706;2023-05-02T03:17:07;9.25;;;5.07;;
16824;SDS011;8529;48.108;-1.706;2023-05-02T03:19:36;13.07;;;5.28;;
16824;SDS011;8529;48.108;-1.706;2023-05-02T03:22:03;10.10;;;4.68;;
16824;SDS011;8529;48.108;-1.706;2023-05-02T03:24:29;10.93;;;5.03;;
16824;SDS011;8529;48.108;-1.706;2023-05-02T03:26:57;13.15;;;5.50;;
16824;SDS011;8529;48.108;-1.706;2023-05-02T03:29:24;10.20;;;4.55;;
16824;SDS011;8529;48.108;-1.706;2023-05-02T03:31:52;12.85;;;5.93;;
16824;SDS011;8529;48.108;-1.706;2023-05-02T03:34:19;8.65;;;4.95;;
16824;SDS011;8529;48.108;-1.706;2023-05-02T03:36:48;10.10;;;5.25;;
16824;SDS011;8529;48.108;-1.706;2023-05-02T03:39:15;15.88;;;5.43;;
16824;SDS011;8529;48.108;-1.706;2023-05-02T03:41:42;11.20;;;5.00;;
16824;SDS011;8529;48.108;-1.706;2023-05-02T03:44:08;12.90;;;5.78;;
16824;SDS011;8529;48.108;-1.706;2023-05-02T03:46:35;10.18;;;5.20;;
16824;SDS011;8529;48.108;-1.706;2023-05-02T03:49:02;12.32;;;5.47;;
16824;SDS011;8529;48.108;-1.706;2023-05-02T03:51:29;11.32;;;5.20;;
16824;SDS011;8529;48.108;-1.706;2023-05-02T03:54:00;10.73;;;4.85;;
16824;SDS011;8529;48.108;-1.706;2023-05-02T03:56:27;11.07;;;5.25;;
16824;SDS011;8529;48.108;-1.706;2023-05-02T03:58:54;11.82;;;5.35;;
16824;SDS011;8529;48.108;-1.706;2023-05-02T04:01:21;11.52;;;5.38;;
16824;SDS011;8529;48.108;-1.706;2023-05-02T04:03:48;15.80;;;6.88;;
16824;SDS011;8529;48.108;-1.706;2023-05-02T04:06:18;7.80;;;4.85;;
16824;SDS011;8529;48.108;-1.706;2023-05-02T04:08:44;11.27;;;5.15;;
16824;SDS011;8529;48.108;-1.706;2023-05-02T04:11:13;10.90;;;5.78;;
16824;SDS011;8529;48.108;-1.706;2023-05-02T04:13:40;7.35;;;4.85;;
16824;SDS011;8529;48.108;-1.706;2023-05-02T04:16:07;10.10;;;5.38;;
16824;SDS011;8529;48.108;-1.706;2023-05-02T04:18:34;11.10;;;5.18;;
16824;SDS011;8529;48.108;-1.706;2023-05-02T04:21:01;9.93;;;5.30;;
16824;SDS011;8529;48.108;-1.706;2023-05-02T04:23:28;10.10;;;5.00;;
16824;SDS011;8529;48.108;-1.706;2023-05-02T04:25:55;11.45;;;5.35;;
16824;SDS011;8529;48.108;-1.706;2023-05-02T04:28:23;11.63;;;5.45;;
16824;SDS011;8529;48.108;-1.706;2023-05-02T04:30:50;11.65;;;5.55;;
16824;SDS011;8529;48.108;-1.706;2023-05-02T04:33:17;10.23;;;5.45;;
16824;SDS011;8529;48.108;-1.706;2023-05-02T04:35:44;11.45;;;5.55;;
16824;SDS011;8529;48.108;-1.706;2023-05-02T04:38:11;10.77;;;5.55;;
16824;SDS011;8529;48.108;-1.706;2023-05-02T04:40:38;13.00;;;6.10;;
16824;SDS011;8529;48.108;-1.706;2023-05-02T04:43:05;12.77;;;5.88;;
16824;SDS011;8529;48.108;-1.706;2023-05-02T04:45:34;11.32;;;5.65;;
16824;SDS011;8529;48.108;-1.706;2023-05-02T04:48:01;14.02;;;5.80;;
16824;SDS011;8529;48.108;-1.706;2023-05-02T04:50:29;13.25;;;5.75;;
16824;SDS011;8529;48.108;-1.706;2023-05-02T04:52:56;12.77;;;6.78;;
16824;SDS011;8529;48.108;-1.706;2023-05-02T04:55:23;13.25;;;6.18;;
16824;SDS011;8529;48.108;-1.706;2023-05-02T04:57:50;8.82;;;5.70;;
16824;SDS011;8529;48.108;-1.706;2023-05-02T05:00:17;12.32;;;5.95;;
16824;SDS011;8529;48.108;-1.706;2023-05-02T05:02:45;10.90;;;5.07;;
16824;SDS011;8529;48.108;-1.706;2023-05-02T05:05:12;10.50;;;6.03;;
16824;SDS011;8529;48.108;-1.706;2023-05-02T05:07:39;11.05;;;6.60;;
16824;SDS011;8529;48.108;-1.706;2023-05-02T05:10:07;12.95;;;5.43;;
16824;SDS011;8529;48.108;-1.706;2023-05-02T05:12:35;11.48;;;5.95;;
16824;SDS011;8529;48.108;-1.706;2023-05-02T05:15:03;14.10;;;6.80;;
16824;SDS011;8529;48.108;-1.706;2023-05-02T05:17:30;10.80;;;5.88;;
16824;SDS011;8529;48.108;-1.706;2023-05-02T05:19:59;10.85;;;6.45;;
16824;SDS011;8529;48.108;-1.706;2023-05-02T05:22:26;12.18;;;7.43;;
16824;SDS011;8529;48.108;-1.706;2023-05-02T05:24:53;10.73;;;6.10;;
16824;SDS011;8529;48.108;-1.706;2023-05-02T05:27:20;10.60;;;6.72;;
16824;SDS011;8529;48.108;-1.706;2023-05-02T05:29:47;11.25;;;6.35;;
16824;SDS011;8529;48.108;-1.706;2023-05-02T05:32:14;13.38;;;6.70;;
16824;SDS011;8529;48.108;-1.706;2023-05-02T05:34:40;16.75;;;6.82;;
16824;SDS011;8529;48.108;-1.706;2023-05-02T05:37:09;11.48;;;5.78;;
16824;SDS011;8529;48.108;-1.706;2023-05-02T05:39:36;12.32;;;6.45;;
16824;SDS011;8529;48.108;-1.706;2023-05-02T05:42:02;11.98;;;6.45;;
16824;SDS011;8529;48.108;-1.706;2023-05-02T05:44:30;13.40;;;7.15;;
16824;SDS011;8529;48.108;-1.706;2023-05-02T05:46:57;11.98;;;6.10;;
16824;SDS011;8529;48.108;-1.706;2023-05-02T05:49:24;12.80;;;6.68;;
16824;SDS011;8529;48.108;-1.706;2023-05-02T05:51:50;13.10;;;6.63;;
16824;SDS011;8529;48.108;-1.706;2023-05-02T05:54:19;12.60;;;7.47;;
16824;SDS011;8529;48.108;-1.706;2023-05-02T05:56:46;12.75;;;6.97;;
16824;SDS011;8529;48.108;-1.706;2023-05-02T05:59:12;12.23;;;5.90;;
16824;SDS011;8529;48.108;-1.706;2023-05-02T06:01:40;11.50;;;6.68;;
16824;SDS011;8529;48.108;-1.706;2023-05-02T06:04:07;10.55;;;5.65;;
16824;SDS011;8529;48.108;-1.706;2023-05-02T06:06:34;11.25;;;6.20;;
16824;SDS011;8529;48.108;-1.706;2023-05-02T06:09:01;12.85;;;6.28;;
16824;SDS011;8529;48.108;-1.706;2023-05-02T06:11:30;11.23;;;6.55;;
16824;SDS011;8529;48.108;-1.706;2023-05-02T06:13:57;12.02;;;6.63;;
16824;SDS011;8529;48.108;-1.706;2023-05-02T06:16:24;12.00;;;6.30;;
16824;SDS011;8529;48.108;-1.706;2023-05-02T06:18:50;12.57;;;6.68;;
16824;SDS011;8529;48.108;-1.706;2023-05-02T06:21:17;13.00;;;6.07;;
16824;SDS011;8529;48.108;-1.706;2023-05-02T06:23:45;10.35;;;6.22;;
16824;SDS011;8529;48.108;-1.706;2023-05-02T06:26:11;13.63;;;7.07;;
16824;SDS011;8529;48.108;-1.706;2023-05-02T06:28:40;12.38;;;6.45;;
16824;SDS011;8529;48.108;-1.706;2023-05-02T06:31:08;13.02;;;7.05;;
16824;SDS011;8529;48.108;-1.706;2023-05-02T06:33:35;13.40;;;6.55;;
16824;SDS011;8529;48.108;-1.706;2023-05-02T06:36:02;14.98;;;6.72;;
16824;SDS011;8529;48.108;-1.706;2023-05-02T06:38:29;11.80;;;6.45;;
16824;SDS011;8529;48.108;-1.706;2023-05-02T06:40:56;11.05;;;5.97;;
16824;SDS011;8529;48.108;-1.706;2023-05-02T06:43:23;9.43;;;6.38;;
16824;SDS011;8529;48.108;-1.706;2023-05-02T06:45:52;11.70;;;6.32;;
16824;SDS011;8529;48.108;-1.706;2023-05-02T06:48:20;8.35;;;5.80;;
16824;SDS011;8529;48.108;-1.706;2023-05-02T06:50:47;13.88;;;6.20;;
16824;SDS011;8529;48.108;-1.706;2023-05-02T06:53:14;12.77;;;7.55;;
16824;SDS011;8529;48.108;-1.706;2023-05-02T06:55:41;11.88;;;7.07;;
16824;SDS011;8529;48.108;-1.706;2023-05-02T06:58:09;15.57;;;6.82;;
16824;SDS011;8529;48.108;-1.706;2023-05-02T07:00:36;11.65;;;6.45;;
16824;SDS011;8529;48.108;-1.706;2023-05-02T07:03:04;9.23;;;6.00;;
16824;SDS011;8529;48.108;-1.706;2023-05-02T07:05:31;9.50;;;6.05;;
16824;SDS011;8529;48.108;-1.706;2023-05-02T07:07:58;12.80;;;6.25;;
16824;SDS011;8529;48.108;-1.706;2023-05-02T07:10:25;10.90;;;6.35;;
16824;SDS011;8529;48.108;-1.706;2023-05-02T07:12:52;14.60;;;7.55;;
16824;SDS011;8529;48.108;-1.706;2023-05-02T07:15:19;12.32;;;6.70;;
16824;SDS011;8529;48.108;-1.706;2023-05-02T07:17:46;14.23;;;6.18;;
16824;SDS011;8529;48.108;-1.706;2023-05-02T07:20:14;14.73;;;7.47;;
16824;SDS011;8529;48.108;-1.706;2023-05-02T07:22:41;12.38;;;6.63;;
16824;SDS011;8529;48.108;-1.706;2023-05-02T07:25:08;12.15;;;6.93;;
16824;SDS011;8529;48.108;-1.706;2023-05-02T07:27:35;13.25;;;6.78;;
16824;SDS011;8529;48.108;-1.706;2023-05-02T07:30:03;12.77;;;6.05;;
16824;SDS011;8529;48.108;-1.706;2023-05-02T07:32:30;10.38;;;6.80;;
16824;SDS011;8529;48.108;-1.706;2023-05-02T07:34:57;12.65;;;6.72;;
16824;SDS011;8529;48.108;-1.706;2023-05-02T07:37:25;13.43;;;6.55;;
16824;SDS011;8529;48.108;-1.706;2023-05-02T07:39:57;13.68;;;6.82;;
16824;SDS011;8529;48.108;-1.706;2023-05-02T07:42:27;9.55;;;6.13;;
16824;SDS011;8529;48.108;-1.706;2023-05-02T07:44:54;13.20;;;6.82;;
16824;SDS011;8529;48.108;-1.706;2023-05-02T07:47:21;13.57;;;6.50;;
16824;SDS011;8529;48.108;-1.706;2023-05-02T07:49:49;12.68;;;6.18;;
16824;SDS011;8529;48.108;-1.706;2023-05-02T07:52:16;11.35;;;5.65;;
16824;SDS011;8529;48.108;-1.706;2023-05-02T07:54:45;9.40;;;5.03;;
16824;SDS011;8529;48.108;-1.706;2023-05-02T07:57:13;11.32;;;5.80;;
16824;SDS011;8529;48.108;-1.706;2023-05-02T07:59:40;10.65;;;6.97;;
16824;SDS011;8529;48.108;-1.706;2023-05-02T08:02:07;14.13;;;5.95;;
16824;SDS011;8529;48.108;-1.706;2023-05-02T08:04:35;9.65;;;6.55;;
16824;SDS011;8529;48.108;-1.706;2023-05-02T08:07:02;12.05;;;5.88;;
16824;SDS011;8529;48.108;-1.706;2023-05-02T08:09:29;12.95;;;6.05;;
16824;SDS011;8529;48.108;-1.706;2023-05-02T08:11:57;11.55;;;5.68;;
16824;SDS011;8529;48.108;-1.706;2023-05-02T08:14:26;8.52;;;4.72;;
16824;SDS011;8529;48.108;-1.706;2023-05-02T08:16:53;9.70;;;5.15;;
16824;SDS011;8529;48.108;-1.706;2023-05-02T08:19:20;10.63;;;4.78;;
16824;SDS011;8529;48.108;-1.706;2023-05-02T08:21:47;12.13;;;5.03;;
16824;SDS011;8529;48.108;-1.706;2023-05-02T08:24:14;10.52;;;4.85;;
16824;SDS011;8529;48.108;-1.706;2023-05-02T08:26:41;8.25;;;4.40;;
16824;SDS011;8529;48.108;-1.706;2023-05-02T08:29:09;10.95;;;4.57;;
16824;SDS011;8529;48.108;-1.706;2023-05-02T08:31:36;7.57;;;4.47;;
16824;SDS011;8529;48.108;-1.706;2023-05-02T08:34:03;8.40;;;4.07;;
16824;SDS011;8529;48.108;-1.706;2023-05-02T08:36:30;6.40;;;3.97;;
16824;SDS011;8529;48.108;-1.706;2023-05-02T08:38:57;12.13;;;4.97;;
16824;SDS011;8529;48.108;-1.706;2023-05-02T08:41:24;10.90;;;4.30;;
16824;SDS011;8529;48.108;-1.706;2023-05-02T08:43:54;12.32;;;5.45;;
16824;SDS011;8529;48.108;-1.706;2023-05-02T08:46:23;7.25;;;4.38;;
16824;SDS011;8529;48.108;-1.706;2023-05-02T08:48:51;7.90;;;4.75;;
16824;SDS011;8529;48.108;-1.706;2023-05-02T08:51:23;7.35;;;4.07;;
16824;SDS011;8529;48.108;-1.706;2023-05-02T08:53:51;10.80;;;4.60;;
16824;SDS011;8529;48.108;-1.706;2023-05-02T08:56:19;8.63;;;4.22;;
16824;SDS011;8529;48.108;-1.706;2023-05-02T08:58:46;5.72;;;3.40;;
16824;SDS011;8529;48.108;-1.706;2023-05-02T09:01:14;9.00;;;3.80;;
16824;SDS011;8529;48.108;-1.706;2023-05-02T09:03:44;5.35;;;3.10;;
16824;SDS011;8529;48.108;-1.706;2023-05-02T09:06:13;6.45;;;3.08;;
16824;SDS011;8529;48.108;-1.706;2023-05-02T09:08:41;5.05;;;3.55;;
16824;SDS011;8529;48.108;-1.706;2023-05-02T09:11:09;9.25;;;3.88;;
16824;SDS011;8529;48.108;-1.706;2023-05-02T09:13:37;5.57;;;3.38;;
16824;SDS011;8529;48.108;-1.706;2023-05-02T09:16:06;6.05;;;3.83;;
16824;SDS011;8529;48.108;-1.706;2023-05-02T09:18:35;7.00;;;3.40;;
16824;SDS011;8529;48.108;-1.706;2023-05-02T09:21:05;5.55;;;3.13;;
16824;SDS011;8529;48.108;-1.706;2023-05-02T09:23:35;8.43;;;4.40;;
16824;SDS011;8529;48.108;-1.706;2023-05-02T09:26:10;4.47;;;2.88;;
16824;SDS011;8529;48.108;-1.706;2023-05-02T09:28:42;6.07;;;3.63;;
16824;SDS011;8529;48.108;-1.706;2023-05-02T09:31:11;6.28;;;3.53;;
16824;SDS011;8529;48.108;-1.706;2023-05-02T09:33:39;5.32;;;4.13;;
16824;SDS011;8529;48.108;-1.706;2023-05-02T09:36:09;5.07;;;3.45;;
16824;SDS011;8529;48.108;-1.706;2023-05-02T09:38:38;4.20;;;2.70;;
16824;SDS011;8529;48.108;-1.706;2023-05-02T09:41:06;4.40;;;2.67;;
16824;SDS011;8529;48.108;-1.706;2023-05-02T09:43:33;6.78;;;3.03;;
16824;SDS011;8529;48.108;-1.706;2023-05-02T09:46:02;4.50;;;2.53;;
16824;SDS011;8529;48.108;-1.706;2023-05-02T09:48:31;6.13;;;2.47;;
16824;SDS011;8529;48.108;-1.706;2023-05-02T09:50:59;4.03;;;2.15;;
16824;SDS011;8529;48.108;-1.706;2023-05-02T09:53:27;3.90;;;1.85;;
16824;SDS011;8529;48.108;-1.706;2023-05-02T09:55:58;2.45;;;1.77;;
16824;SDS011;8529;48.108;-1.706;2023-05-02T09:58:26;3.10;;;2.63;;
16824;SDS011;8529;48.108;-1.706;2023-05-02T10:00:55;7.85;;;2.22;;
16824;SDS011;8529;48.108;-1.706;2023-05-02T10:03:23;4.15;;;2.08;;
16824;SDS011;8529;48.108;-1.706;2023-05-02T10:05:51;4.85;;;2.08;;
16824;SDS011;8529;48.108;-1.706;2023-05-02T10:08:19;3.63;;;2.20;;
16824;SDS011;8529;48.108;-1.706;2023-05-02T10:10:49;3.47;;;2.00;;
16824;SDS011;8529;48.108;-1.706;2023-05-02T10:13:19;3.17;;;2.30;;
16824;SDS011;8529;48.108;-1.706;2023-05-02T10:15:49;2.75;;;2.22;;
16824;SDS011;8529;48.108;-1.706;2023-05-02T10:18:20;3.33;;;2.38;;
16824;SDS011;8529;48.108;-1.706;2023-05-02T10:20:58;4.90;;;2.20;;
16824;SDS011;8529;48.108;-1.706;2023-05-02T10:23:30;2.55;;;1.92;;
16824;SDS011;8529;48.108;-1.706;2023-05-02T10:25:58;3.75;;;2.22;;
16824;SDS011;8529;48.108;-1.706;2023-05-02T10:28:26;5.88;;;2.08;;
16824;SDS011;8529;48.108;-1.706;2023-05-02T10:30:53;3.75;;;2.30;;
16824;SDS011;8529;48.108;-1.706;2023-05-02T10:33:20;2.47;;;2.00;;
16824;SDS011;8529;48.108;-1.706;2023-05-02T10:35:48;3.20;;;2.40;;
16824;SDS011;8529;48.108;-1.706;2023-05-02T10:38:15;4.72;;;2.53;;
16824;SDS011;8529;48.108;-1.706;2023-05-02T10:40:49;3.50;;;2.28;;
16824;SDS011;8529;48.108;-1.706;2023-05-02T10:43:22;3.83;;;2.67;;
16824;SDS011;8529;48.108;-1.706;2023-05-02T10:45:50;3.90;;;2.58;;
16824;SDS011;8529;48.108;-1.706;2023-05-02T10:48:18;2.42;;;2.20;;
16824;SDS011;8529;48.108;-1.706;2023-05-02T10:50:47;4.40;;;2.88;;
16824;SDS011;8529;48.108;-1.706;2023-05-02T10:53:22;5.18;;;2.72;;
16824;SDS011;8529;48.108;-1.706;2023-05-02T10:56:12;3.92;;;2.55;;
16824;SDS011;8529;48.108;-1.706;2023-05-02T10:58:47;3.17;;;2.42;;
16824;SDS011;8529;48.108;-1.706;2023-05-02T11:01:36;2.95;;;2.53;;
16824;SDS011;8529;48.108;-1.706;2023-05-02T11:04:07;3.03;;;1.65;;
16824;SDS011;8529;48.108;-1.706;2023-05-02T11:06:35;1.75;;;1.65;;
16824;SDS011;8529;48.108;-1.706;2023-05-02T11:11:58;2.47;;;2.28;;
16824;SDS011;8529;48.108;-1.706;2023-05-02T11:14:43;4.53;;;2.35;;
16824;SDS011;8529;48.108;-1.706;2023-05-02T11:17:12;2.00;;;1.80;;
16824;SDS011;8529;48.108;-1.706;2023-05-02T11:22:52;2.90;;;2.13;;
16824;SDS011;8529;48.108;-1.706;2023-05-02T11:25:36;3.30;;;1.90;;
16824;SDS011;8529;48.108;-1.706;2023-05-02T11:28:07;3.38;;;2.50;;
16824;SDS011;8529;48.108;-1.706;2023-05-02T11:34:31;3.83;;;2.20;;
16824;SDS011;8529;48.108;-1.706;2023-05-02T11:37:12;1.85;;;1.65;;
16824;SDS011;8529;48.108;-1.706;2023-05-02T11:39:40;3.03;;;1.80;;
16824;SDS011;8529;48.108;-1.706;2023-05-02T11:42:07;2.50;;;1.88;;
16824;SDS011;8529;48.108;-1.706;2023-05-02T11:47:22;2.15;;;1.95;;
16824;SDS011;8529;48.108;-1.706;2023-05-02T11:49:53;2.95;;;2.20;;
16824;SDS011;8529;48.108;-1.706;2023-05-02T11:52:20;4.80;;;1.70;;
16824;SDS011;8529;48.108;-1.706;2023-05-02T11:54:48;2.50;;;1.70;;
16824;SDS011;8529;48.108;-1.706;2023-05-02T11:57:15;3.42;;;1.90;;
16824;SDS011;8529;48.108;-1.706;2023-05-02T11:59:48;3.47;;;1.60;;
16824;SDS011;8529;48.108;-1.706;2023-05-02T12:02:16;1.83;;;1.60;;
16824;SDS011;8529;48.108;-1.706;2023-05-02T12:04:43;1.77;;;1.45;;
16824;SDS011;8529;48.108;-1.706;2023-05-02T12:07:11;2.60;;;1.73;;
16824;SDS011;8529;48.108;-1.706;2023-05-02T12:09:49;1.73;;;1.52;;
16824;SDS011;8529;48.108;-1.706;2023-05-02T12:12:18;2.95;;;1.88;;
16824;SDS011;8529;48.108;-1.706;2023-05-02T12:14:45;1.70;;;1.60;;
16824;SDS011;8529;48.108;-1.706;2023-05-02T12:17:12;3.05;;;1.50;;
16824;SDS011;8529;48.108;-1.706;2023-05-02T12:19:39;3.78;;;1.67;;
16824;SDS011;8529;48.108;-1.706;2023-05-02T12:22:06;3.78;;;1.52;;
16824;SDS011;8529;48.108;-1.706;2023-05-02T12:24:36;2.53;;;1.65;;
16824;SDS011;8529;48.108;-1.706;2023-05-02T12:27:08;2.72;;;1.80;;
16824;SDS011;8529;48.108;-1.706;2023-05-02T12:29:37;2.08;;;1.60;;
16824;SDS011;8529;48.108;-1.706;2023-05-02T12:32:04;1.98;;;1.40;;
16824;SDS011;8529;48.108;-1.706;2023-05-02T12:34:31;2.78;;;1.92;;
16824;SDS011;8529;48.108;-1.706;2023-05-02T12:36:58;2.05;;;1.42;;
16824;SDS011;8529;48.108;-1.706;2023-05-02T12:39:37;1.95;;;1.25;;
16824;SDS011;8529;48.108;-1.706;2023-05-02T12:42:08;3.75;;;1.50;;
16824;SDS011;8529;48.108;-1.706;2023-05-02T12:44:36;4.05;;;1.50;;
16824;SDS011;8529;48.108;-1.706;2023-05-02T12:47:04;3.83;;;1.77;;
16824;SDS011;8529;48.108;-1.706;2023-05-02T12:49:31;1.85;;;1.10;;
16824;SDS011;8529;48.108;-1.706;2023-05-02T12:51:58;1.27;;;1.17;;
16824;SDS011;8529;48.108;-1.706;2023-05-02T12:54:25;2.30;;;1.58;;
16824;SDS011;8529;48.108;-1.706;2023-05-02T12:56:54;2.08;;;1.50;;
16824;SDS011;8529;48.108;-1.706;2023-05-02T12:59:25;9.13;;;3.40;;
16824;SDS011;8529;48.108;-1.706;2023-05-02T13:01:52;2.63;;;1.25;;
16824;SDS011;8529;48.108;-1.706;2023-05-02T13:04:19;1.60;;;1.50;;
16824;SDS011;8529;48.108;-1.706;2023-05-02T13:06:46;2.13;;;1.38;;
16824;SDS011;8529;48.108;-1.706;2023-05-02T13:09:13;2.72;;;1.58;;
16824;SDS011;8529;48.108;-1.706;2023-05-02T13:11:41;2.42;;;1.60;;
16824;SDS011;8529;48.108;-1.706;2023-05-02T13:14:09;1.92;;;1.30;;
16824;SDS011;8529;48.108;-1.706;2023-05-02T13:16:36;3.38;;;1.88;;
16824;SDS011;8529;48.108;-1.706;2023-05-02T13:19:03;2.80;;;1.70;;
16824;SDS011;8529;48.108;-1.706;2023-05-02T13:21:30;3.58;;;2.53;;
16824;SDS011;8529;48.108;-1.706;2023-05-02T13:23:57;3.60;;;2.40;;
16824;SDS011;8529;48.108;-1.706;2023-05-02T13:26:24;3.90;;;2.30;;
16824;SDS011;8529;48.108;-1.706;2023-05-02T13:28:51;3.78;;;1.65;;
16824;SDS011;8529;48.108;-1.706;2023-05-02T13:31:19;4.50;;;2.50;;
16824;SDS011;8529;48.108;-1.706;2023-05-02T13:33:46;4.25;;;2.05;;
16824;SDS011;8529;48.108;-1.706;2023-05-02T13:36:12;4.10;;;2.72;;
16824;SDS011;8529;48.108;-1.706;2023-05-02T13:38:39;4.63;;;2.00;;
16824;SDS011;8529;48.108;-1.706;2023-05-02T13:41:06;2.40;;;1.70;;
16824;SDS011;8529;48.108;-1.706;2023-05-02T13:43:33;1.60;;;1.50;;
16824;SDS011;8529;48.108;-1.706;2023-05-02T13:46:00;1.90;;;1.67;;
16824;SDS011;8529;48.108;-1.706;2023-05-02T13:48:28;2.25;;;1.77;;
16824;SDS011;8529;48.108;-1.706;2023-05-02T13:50:55;1.73;;;1.58;;
16824;SDS011;8529;48.108;-1.706;2023-05-02T13:53:22;4.15;;;2.22;;
16824;SDS011;8529;48.108;-1.706;2023-05-02T13:55:49;3.42;;;1.65;;
16824;SDS011;8529;48.108;-1.706;2023-05-02T13:58:16;3.13;;;1.90;;
16824;SDS011;8529;48.108;-1.706;2023-05-02T14:00:43;3.65;;;1.50;;
16824;SDS011;8529;48.108;-1.706;2023-05-02T14:03:11;2.95;;;1.70;;
16824;SDS011;8529;48.108;-1.706;2023-05-02T14:05:39;2.22;;;1.60;;
16824;SDS011;8529;48.108;-1.706;2023-05-02T14:08:07;1.98;;;1.33;;
16824;SDS011;8529;48.108;-1.706;2023-05-02T14:10:34;2.85;;;1.70;;
16824;SDS011;8529;48.108;-1.706;2023-05-02T14:13:02;4.30;;;1.77;;
16824;SDS011;8529;48.108;-1.706;2023-05-02T14:15:28;1.40;;;1.30;;
16824;SDS011;8529;48.108;-1.706;2023-05-02T14:17:55;3.55;;;1.48;;
16824;SDS011;8529;48.108;-1.706;2023-05-02T14:20:22;3.05;;;1.33;;
16824;SDS011;8529;48.108;-1.706;2023-05-02T14:22:51;3.40;;;1.55;;
16824;SDS011;8529;48.108;-1.706;2023-05-02T14:25:18;2.17;;;1.75;;
16824;SDS011;8529;48.108;-1.706;2023-05-02T14:27:44;2.13;;;1.60;;
16824;SDS011;8529;48.108;-1.706;2023-05-02T14:30:11;5.53;;;1.67;;
16824;SDS011;8529;48.108;-1.706;2023-05-02T14:32:38;1.77;;;1.48;;
16824;SDS011;8529;48.108;-1.706;2023-05-02T14:35:05;3.13;;;2.00;;
16824;SDS011;8529;48.108;-1.706;2023-05-02T14:37:33;2.22;;;1.48;;
16824;SDS011;8529;48.108;-1.706;2023-05-02T14:40:01;2.63;;;1.42;;
16824;SDS011;8529;48.108;-1.706;2023-05-02T14:42:28;3.55;;;1.15;;
16824;SDS011;8529;48.108;-1.706;2023-05-02T14:44:55;1.58;;;1.40;;
16824;SDS011;8529;48.108;-1.706;2023-05-02T14:47:22;2.63;;;1.73;;
16824;SDS011;8529;48.108;-1.706;2023-05-02T14:49:49;3.20;;;1.80;;
16824;SDS011;8529;48.108;-1.706;2023-05-02T14:52:16;2.13;;;1.80;;
16824;SDS011;8529;48.108;-1.706;2023-05-02T14:54:43;2.63;;;1.38;;
16824;SDS011;8529;48.108;-1.706;2023-05-02T14:57:12;3.03;;;2.35;;
16824;SDS011;8529;48.108;-1.706;2023-05-02T14:59:39;2.55;;;1.70;;
16824;SDS011;8529;48.108;-1.706;2023-05-02T15:02:07;2.40;;;1.52;;
16824;SDS011;8529;48.108;-1.706;2023-05-02T15:04:33;2.08;;;1.77;;
16824;SDS011;8529;48.108;-1.706;2023-05-02T15:07:00;3.25;;;1.80;;